createdAt,value
2018-10-11T00:00:27.626Z,12.72
2018-10-11T00:01:27.770Z,12.75
2018-10-11T00:02:27.774Z,12.72
2018-10-11T00:03:27.243Z,12.68
2018-10-11T00:04:27.770Z,12.75
2018-10-11T00:05:27.778Z,12.65
2018-10-11T00:06:27.766Z,12.7
2018-10-11T00:07:27.518Z,12.73
2018-10-11T00:08:27.496Z,12.73
2018-10-11T00:09:27.758Z,12.68
2018-10-11T00:10:27.777Z,12.72
2018-10-11T00:11:27.742Z,12.68
2018-10-11T00:12:27.471Z,12.72
2018-10-11T00:13:27.475Z,12.68
2018-10-11T00:14:27.743Z,12.68
2018-10-11T00:15:27.496Z,12.68
2018-10-11T00:16:27.493Z,12.65
2018-10-11T00:17:27.766Z,12.64
2018-10-11T00:18:27.733Z,12.64
2018-10-11T00:19:27.485Z,12.64
2018-10-11T00:20:27.482Z,12.58
2018-10-11T00:21:27.727Z,12.53
2018-10-11T00:22:27.444Z,12.46
2018-10-11T00:23:27.717Z,12.47
2018-10-11T00:24:27.171Z,12.47
2018-10-11T00:25:27.503Z,12.47
2018-10-11T00:26:27.454Z,12.49
2018-10-11T00:27:27.441Z,12.47
2018-10-11T00:28:27.700Z,12.47
2018-10-11T00:29:27.693Z,12.49
2018-10-11T00:30:27.727Z,12.49
2018-10-11T00:31:27.448Z,12.46
2018-10-11T00:32:27.701Z,12.55
2018-10-11T00:33:27.445Z,12.47
2018-10-11T00:34:27.685Z,12.47
2018-10-11T00:35:27.745Z,12.47
2018-10-11T00:36:27.450Z,12.47
2018-10-11T00:37:27.684Z,12.46
2018-10-11T00:38:27.400Z,12.43
2018-10-11T00:39:27.659Z,12.53
2018-10-11T00:40:27.171Z,12.53
2018-10-11T00:41:27.681Z,12.36
2018-10-11T00:42:27.395Z,12.45
2018-10-11T00:43:27.423Z,12.49
2018-10-11T00:44:27.144Z,12.49
2018-10-11T00:45:27.415Z,12.5
2018-10-11T00:46:27.635Z,12.43
2018-10-11T00:47:27.651Z,12.37
2018-10-11T00:48:27.621Z,12.35
2018-10-11T00:49:27.811Z,12.42
2018-10-11T00:50:27.635Z,12.4
2018-10-11T00:51:27.632Z,12.49
2018-10-11T00:52:27.635Z,12.37
2018-10-11T00:53:27.360Z,12.37
2018-10-11T00:54:27.347Z,12.35
2018-10-11T00:55:27.137Z,12.28
2018-10-11T00:56:27.645Z,12.29
2018-10-11T00:57:27.612Z,12.37
2018-10-11T00:58:27.072Z,12.31
2018-10-11T00:59:27.614Z,12.2
2018-10-11T01:00:27.694Z,12.31
2018-10-11T01:01:27.340Z,12.37
2018-10-11T01:02:27.314Z,12.28
2018-10-11T01:03:27.590Z,12.25
2018-10-11T01:04:27.336Z,12.31
2018-10-11T01:05:27.321Z,12.37
2018-10-11T01:06:27.639Z,12.37
2018-10-11T01:07:27.580Z,12.32
2018-10-11T01:08:27.319Z,12.31
2018-10-11T01:09:27.656Z,12.36
2018-10-11T01:10:27.606Z,12.22
2018-10-11T01:11:27.287Z,12.36
2018-10-11T01:12:27.577Z,12.36
2018-10-11T01:13:27.287Z,12.39
2018-10-11T01:14:27.278Z,12.29
2018-10-11T01:15:27.608Z,12.32
2018-10-11T01:16:27.554Z,12.35
2018-10-11T01:17:27.264Z,12.25
2018-10-11T01:18:27.262Z,12.22
2018-10-11T01:19:27.262Z,12.25
2018-10-11T01:20:27.532Z,12.2
2018-10-11T01:21:27.559Z,12.24
2018-10-11T01:22:27.286Z,12.17
2018-10-11T01:23:26.995Z,12.18
2018-10-11T01:24:26.988Z,12.15
2018-10-11T01:25:27.099Z,12.2
2018-10-11T01:26:27.517Z,12.2
2018-10-11T01:27:27.502Z,12.18
2018-10-11T01:28:27.226Z,12.07
2018-10-11T01:29:27.523Z,12.18
2018-10-11T01:30:27.569Z,12.21
2018-10-11T01:31:27.504Z,12.22
2018-10-11T01:32:27.221Z,12.12
2018-10-11T01:33:27.499Z,12.1
2018-10-11T01:34:27.213Z,12.17
2018-10-11T01:35:26.973Z,12.2
2018-10-11T01:36:26.947Z,12.15
2018-10-11T01:37:27.513Z,12.12
2018-10-11T01:38:27.207Z,12.13
2018-10-11T01:39:27.465Z,12.12
2018-10-11T01:40:27.544Z,12.04
2018-10-11T01:41:27.457Z,12.15
2018-10-11T01:42:27.443Z,11.97
2018-10-11T01:43:27.443Z,12
2018-10-11T01:44:27.450Z,12
2018-10-11T01:45:27.537Z,11.91
2018-10-11T01:46:27.168Z,12
2018-10-11T01:47:27.168Z,11.94
2018-10-11T01:48:29.027Z,11.97
2018-10-11T01:49:27.167Z,12.03
2018-10-11T01:50:27.511Z,12
2018-10-11T01:51:27.420Z,11.95
2018-10-11T01:52:27.423Z,11.87
2018-10-11T01:53:27.170Z,11.84
2018-10-11T01:54:27.161Z,11.83
2018-10-11T01:55:27.224Z,11.87
2018-10-11T01:56:27.410Z,11.83
2018-10-11T01:57:27.134Z,11.77
2018-10-11T01:58:27.386Z,11.77
2018-10-11T01:59:27.144Z,11.83
2018-10-11T02:00:27.384Z,11.83
2018-10-11T02:01:27.383Z,11.86
2018-10-11T02:02:27.127Z,11.81
2018-10-11T02:03:27.385Z,11.75
2018-10-11T02:04:27.124Z,11.83
2018-10-11T02:05:27.143Z,11.83
2018-10-11T02:06:27.377Z,11.72
2018-10-11T02:07:27.118Z,11.75
2018-10-11T02:08:27.108Z,11.78
2018-10-11T02:09:27.128Z,11.8
2018-10-11T02:10:26.902Z,11.73
2018-10-11T02:11:27.088Z,11.77
2018-10-11T02:12:27.361Z,11.83
2018-10-11T02:13:27.090Z,11.7
2018-10-11T02:14:27.090Z,11.68
2018-10-11T02:15:26.844Z,11.78
2018-10-11T02:16:27.088Z,11.7
2018-10-11T02:17:27.083Z,11.8
2018-10-11T02:18:29.969Z,11.81
2018-10-11T02:19:27.092Z,11.78
2018-10-11T02:20:27.112Z,11.78
2018-10-11T02:21:27.054Z,11.77
2018-10-11T02:22:27.059Z,11.81
2018-10-11T02:23:27.303Z,11.84
2018-10-11T02:24:27.346Z,11.83
2018-10-11T02:25:27.367Z,11.77
2018-10-11T02:26:27.036Z,11.8
2018-10-11T02:27:27.292Z,11.78
2018-10-11T02:28:27.311Z,11.65
2018-10-11T02:29:27.381Z,11.75
2018-10-11T02:30:27.347Z,11.83
2018-10-11T02:31:27.016Z,11.8
2018-10-11T02:32:27.047Z,11.69
2018-10-11T02:33:27.020Z,11.68
2018-10-11T02:34:27.290Z,11.8
2018-10-11T02:35:27.334Z,11.81
2018-10-11T02:36:27.275Z,11.84
2018-10-11T02:37:27.271Z,11.72
2018-10-11T02:38:27.243Z,11.81
2018-10-11T02:39:26.718Z,11.69
2018-10-11T02:40:27.068Z,11.7
2018-10-11T02:41:26.994Z,11.66
2018-10-11T02:42:26.708Z,11.68
2018-10-11T02:43:26.991Z,11.62
2018-10-11T02:44:26.956Z,11.62
2018-10-11T02:45:27.024Z,11.66
2018-10-11T02:46:26.967Z,11.65
2018-10-11T02:47:26.950Z,11.55
2018-10-11T02:48:27.224Z,11.57
2018-10-11T02:49:27.201Z,11.59
2018-10-11T02:50:26.696Z,11.55
2018-10-11T02:51:27.197Z,11.47
2018-10-11T02:52:27.189Z,11.45
2018-10-11T02:53:27.193Z,11.51
2018-10-11T02:54:27.196Z,11.44
2018-10-11T02:55:27.243Z,11.44
2018-10-11T02:56:27.179Z,11.52
2018-10-11T02:57:27.183Z,11.47
2018-10-11T02:58:27.173Z,11.51
2018-10-11T02:59:26.915Z,11.48
2018-10-11T03:00:27.002Z,11.47
2018-10-11T03:01:27.158Z,11.45
2018-10-11T03:02:26.901Z,11.47
2018-10-11T03:03:27.164Z,11.45
2018-10-11T03:04:26.901Z,11.45
2018-10-11T03:05:27.183Z,11.44
2018-10-11T03:06:27.144Z,11.52
2018-10-11T03:07:27.141Z,11.45
2018-10-11T03:08:26.876Z,11.41
2018-10-11T03:09:27.146Z,11.44
2018-10-11T03:10:26.609Z,11.45
2018-10-11T03:11:27.124Z,11.4
2018-10-11T03:12:26.855Z,11.37
2018-10-11T03:13:27.142Z,11.43
2018-10-11T03:14:26.851Z,11.37
2018-10-11T03:15:26.938Z,11.37
2018-10-11T03:16:27.105Z,11.44
2018-10-11T03:17:26.830Z,11.45
2018-10-11T03:18:26.818Z,11.55
2018-10-11T03:19:27.112Z,11.4
2018-10-11T03:20:26.595Z,11.43
2018-10-11T03:21:27.099Z,11.44
2018-10-11T03:22:26.816Z,11.44
2018-10-11T03:23:26.804Z,11.47
2018-10-11T03:24:27.148Z,11.44
2018-10-11T03:25:26.844Z,11.41
2018-10-11T03:26:26.803Z,11.35
2018-10-11T03:27:26.532Z,11.43
2018-10-11T03:28:27.064Z,11.41
2018-10-11T03:29:26.546Z,11.4
2018-10-11T03:30:27.170Z,11.4
2018-10-11T03:31:26.784Z,11.43
2018-10-11T03:32:27.058Z,11.43
2018-10-11T03:33:26.529Z,11.3
2018-10-11T03:34:26.762Z,11.43
2018-10-11T03:35:27.065Z,11.23
2018-10-11T03:36:27.064Z,11.29
2018-10-11T03:37:27.054Z,11.35
2018-10-11T03:38:27.031Z,11.32
2018-10-11T03:39:26.767Z,11.32
2018-10-11T03:40:27.118Z,11.32
2018-10-11T03:41:26.478Z,11.33
2018-10-11T03:42:27.003Z,11.32
2018-10-11T03:43:27.016Z,11.37
2018-10-11T03:44:26.734Z,11.41
2018-10-11T03:45:26.515Z,11.37
2018-10-11T03:46:26.484Z,11.36
2018-10-11T03:47:26.981Z,11.27
2018-10-11T03:48:26.994Z,11.35
2018-10-11T03:49:27.000Z,11.32
2018-10-11T03:50:27.089Z,11.33
2018-10-11T03:51:26.994Z,11.33
2018-10-11T03:52:26.712Z,11.32
2018-10-11T03:53:27.007Z,11.36
2018-10-11T03:54:27.055Z,11.36
2018-10-11T03:55:26.988Z,11.32
2018-10-11T03:56:26.954Z,11.33
2018-10-11T03:57:26.714Z,11.35
2018-10-11T03:58:26.417Z,11.3
2018-10-11T03:59:26.691Z,11.36
2018-10-11T04:00:27.064Z,11.35
2018-10-11T04:01:26.655Z,11.3
2018-10-11T04:02:26.931Z,11.33
2018-10-11T04:03:26.638Z,11.33
2018-10-11T04:04:26.635Z,11.32
2018-10-11T04:05:26.901Z,11.27
2018-10-11T04:06:26.622Z,11.36
2018-10-11T04:07:27.084Z,11.29
2018-10-11T04:08:26.599Z,11.32
2018-10-11T04:09:26.639Z,11.32
2018-10-11T04:10:26.846Z,11.35
2018-10-11T04:11:26.565Z,11.29
2018-10-11T04:12:26.561Z,11.25
2018-10-11T04:13:26.820Z,11.18
2018-10-11T04:14:26.552Z,11.22
2018-10-11T04:15:26.894Z,11.11
2018-10-11T04:16:26.801Z,11.15
2018-10-11T04:17:26.795Z,11.23
2018-10-11T04:18:26.785Z,11.19
2018-10-11T04:19:26.544Z,11.32
2018-10-11T04:20:26.574Z,11.27
2018-10-11T04:21:26.339Z,11.27
2018-10-11T04:22:26.543Z,11.27
2018-10-11T04:23:26.783Z,11.22
2018-10-11T04:24:26.559Z,11.25
2018-10-11T04:25:26.886Z,11.15
2018-10-11T04:26:26.771Z,11.29
2018-10-11T04:27:26.500Z,11.23
2018-10-11T04:28:26.509Z,11.19
2018-10-11T04:29:26.751Z,11.23
2018-10-11T04:30:26.757Z,11.26
2018-10-11T04:31:26.746Z,11.22
2018-10-11T04:32:26.736Z,11.22
2018-10-11T04:33:26.218Z,11.25
2018-10-11T04:34:26.733Z,11.25
2018-10-11T04:35:26.777Z,11.27
2018-10-11T04:36:26.763Z,11.17
2018-10-11T04:37:26.711Z,11.23
2018-10-11T04:38:26.470Z,11.18
2018-10-11T04:39:26.446Z,11.33
2018-10-11T04:40:26.476Z,11.33
2018-10-11T04:41:26.453Z,11.33
2018-10-11T04:42:26.694Z,11.22
2018-10-11T04:43:26.976Z,11.26
2018-10-11T04:44:26.707Z,11.29
2018-10-11T04:45:26.434Z,11.26
2018-10-11T04:46:26.205Z,11.25
2018-10-11T04:47:26.673Z,11.22
2018-10-11T04:48:26.421Z,11.25
2018-10-11T04:49:26.665Z,11.22
2018-10-11T04:50:26.701Z,11.19
2018-10-11T04:51:26.429Z,11.15
2018-10-11T04:52:26.396Z,11.25
2018-10-11T04:53:26.778Z,11.17
2018-10-11T04:54:26.670Z,11.11
2018-10-11T04:55:26.710Z,11.17
2018-10-11T04:56:26.666Z,11.12
2018-10-11T04:57:26.673Z,11.1
2018-10-11T04:58:26.648Z,11.1
2018-10-11T04:59:26.643Z,11.08
2018-10-11T05:00:26.364Z,11.12
2018-10-11T05:01:26.640Z,11.15
2018-10-11T05:02:26.381Z,11.14
2018-10-11T05:03:26.353Z,11.19
2018-10-11T05:04:26.364Z,11.19
2018-10-11T05:05:26.961Z,11.23
2018-10-11T05:06:26.638Z,11.19
2018-10-11T05:07:26.354Z,11.14
2018-10-11T05:08:26.613Z,11.1
2018-10-11T05:09:26.076Z,11.12
2018-10-11T05:10:26.414Z,11.15
2018-10-11T05:11:26.065Z,11.15
2018-10-11T05:12:26.319Z,11.12
2018-10-11T05:13:26.312Z,11.14
2018-10-11T05:14:26.559Z,11.17
2018-10-11T05:15:26.388Z,11.12
2018-10-11T05:16:26.306Z,11.15
2018-10-11T05:17:26.495Z,11.22
2018-10-11T05:18:26.052Z,11.22
2018-10-11T05:19:26.305Z,11.26
2018-10-11T05:20:26.578Z,11.32
2018-10-11T05:21:26.691Z,11.41
2018-10-11T05:22:26.539Z,11.43
2018-10-11T05:23:26.025Z,11.33
2018-10-11T05:24:26.540Z,11.32
2018-10-11T05:25:26.302Z,11.32
2018-10-11T05:26:26.548Z,11.35
2018-10-11T05:27:26.279Z,11.29
2018-10-11T05:28:26.272Z,11.25
2018-10-11T05:29:26.261Z,11.29
2018-10-11T05:30:26.597Z,11.25
2018-10-11T05:31:26.248Z,11.29
2018-10-11T05:32:26.487Z,11.22
2018-10-11T05:33:26.508Z,11.22
2018-10-11T05:34:26.617Z,11.32
2018-10-11T05:35:25.970Z,11.3
2018-10-11T05:36:26.233Z,11.23
2018-10-11T05:37:25.983Z,11.3
2018-10-11T05:38:26.513Z,11.29
2018-10-11T05:39:26.228Z,11.19
2018-10-11T05:40:26.479Z,11.26
2018-10-11T05:41:26.470Z,11.29
2018-10-11T05:42:26.210Z,11.26
2018-10-11T05:43:26.196Z,11.32
2018-10-11T05:44:26.292Z,11.32
2018-10-11T05:45:26.211Z,11.35
2018-10-11T05:46:26.451Z,11.36
2018-10-11T05:47:26.450Z,11.43
2018-10-11T05:48:26.182Z,11.43
2018-10-11T05:49:25.917Z,11.4
2018-10-11T05:50:26.827Z,11.47
2018-10-11T05:51:26.193Z,11.35
2018-10-11T05:52:26.453Z,11.43
2018-10-11T05:53:26.407Z,11.51
2018-10-11T05:54:26.152Z,11.45
2018-10-11T05:55:26.430Z,11.5
2018-10-11T05:56:26.141Z,11.55
2018-10-11T05:57:26.142Z,11.54
2018-10-11T05:58:26.389Z,11.59
2018-10-11T05:59:26.393Z,11.55
2018-10-11T06:00:25.937Z,11.69
2018-10-11T06:01:26.376Z,11.7
2018-10-11T06:02:26.139Z,11.72
2018-10-11T06:03:26.122Z,11.7
2018-10-11T06:04:26.545Z,11.78
2018-10-11T06:05:26.423Z,11.75
2018-10-11T06:06:25.857Z,11.69
2018-10-11T06:07:25.846Z,11.8
2018-10-11T06:08:26.361Z,11.83
2018-10-11T06:09:26.352Z,11.81
2018-10-11T06:10:26.115Z,11.88
2018-10-11T06:11:26.082Z,11.88
2018-10-11T06:12:26.083Z,11.94
2018-10-11T06:13:26.334Z,11.9
2018-10-11T06:14:26.332Z,11.95
2018-10-11T06:15:26.371Z,11.83
2018-10-11T06:16:26.323Z,11.94
2018-10-11T06:17:26.083Z,11.86
2018-10-11T06:18:26.111Z,11.84
2018-10-11T06:19:26.059Z,11.86
2018-10-11T06:20:26.386Z,11.94
2018-10-11T06:21:26.064Z,11.97
2018-10-11T06:22:26.059Z,12.04
2018-10-11T06:23:26.315Z,12.06
2018-10-11T06:24:26.297Z,12.09
2018-10-11T06:25:26.391Z,12.07
2018-10-11T06:26:26.036Z,12.09
2018-10-11T06:27:26.041Z,12.13
2018-10-11T06:28:26.308Z,12.15
2018-10-11T06:29:26.037Z,12.21
2018-10-11T06:30:26.685Z,12.28
2018-10-11T06:31:25.782Z,12.29
2018-10-11T06:32:26.289Z,12.37
2018-10-11T06:33:26.004Z,12.24
2018-10-11T06:34:26.283Z,12.24
2018-10-11T06:35:26.042Z,12.39
2018-10-11T06:36:26.424Z,12.36
2018-10-11T06:37:26.008Z,12.37
2018-10-11T06:38:26.023Z,12.43
2018-10-11T06:39:26.255Z,12.46
2018-10-11T06:40:26.259Z,12.45
2018-10-11T06:41:26.278Z,12.49
2018-10-11T06:42:26.365Z,12.55
2018-10-11T06:43:26.257Z,12.54
2018-10-11T06:44:26.054Z,12.55
2018-10-11T06:45:26.000Z,12.58
2018-10-11T06:46:26.235Z,12.65
2018-10-11T06:47:25.986Z,12.67
2018-10-11T06:48:26.296Z,12.78
2018-10-11T06:49:25.976Z,12.73
2018-10-11T06:50:26.668Z,12.8
2018-10-11T06:51:25.952Z,12.83
2018-10-11T06:52:26.208Z,12.85
2018-10-11T06:53:26.201Z,12.83
2018-10-11T06:54:25.958Z,12.76
2018-10-11T06:55:26.242Z,12.79
2018-10-11T06:56:26.206Z,12.87
2018-10-11T06:57:26.211Z,12.94
2018-10-11T06:58:25.936Z,13.01
2018-10-11T06:59:25.933Z,13.01
2018-10-11T07:00:26.014Z,13.05
2018-10-11T07:01:25.923Z,13.04
2018-10-11T07:02:25.919Z,13.16
2018-10-11T07:03:25.923Z,13.22
2018-10-11T07:04:25.916Z,13.27
2018-10-11T07:05:25.921Z,13.23
2018-10-11T07:06:25.912Z,13.23
2018-10-11T07:07:26.502Z,13.31
2018-10-11T07:08:25.647Z,13.39
2018-10-11T07:09:26.199Z,13.47
2018-10-11T07:10:25.745Z,13.59
2018-10-11T07:11:26.155Z,13.89
2018-10-11T07:12:25.902Z,14.35
2018-10-11T07:13:26.147Z,14.91
2018-10-11T07:14:25.906Z,15.64
2018-10-11T07:15:26.218Z,16.28
2018-10-11T07:16:25.889Z,16.87
2018-10-11T07:17:26.144Z,17.38
2018-10-11T07:18:25.889Z,17.79
2018-10-11T07:19:26.067Z,18.35
2018-10-11T07:20:25.921Z,18.74
2018-10-11T07:21:25.631Z,19.18
2018-10-11T07:22:25.663Z,19.45
2018-10-11T07:23:25.904Z,19.77
2018-10-11T07:24:26.174Z,19.95
2018-10-11T07:25:25.636Z,20.19
2018-10-11T07:26:25.894Z,20.36
2018-10-11T07:27:26.151Z,20.67
2018-10-11T07:28:26.153Z,20.78
2018-10-11T07:29:25.909Z,21.12
2018-10-11T07:30:25.915Z,21.33
2018-10-11T07:31:26.173Z,21.37
2018-10-11T07:32:26.170Z,21.52
2018-10-11T07:33:25.912Z,21.57
2018-10-11T07:34:25.712Z,21.64
2018-10-11T07:35:27.106Z,21.79
2018-10-11T07:36:26.174Z,21.91
2018-10-11T07:37:25.997Z,22.11
2018-10-11T07:38:25.937Z,22.29
2018-10-11T07:39:26.181Z,22.7
2018-10-11T07:40:26.144Z,23.13
2018-10-11T07:41:25.942Z,23.65
2018-10-11T07:42:26.204Z,24.06
2018-10-11T07:43:26.236Z,24.45
2018-10-11T07:44:26.214Z,24.77
2018-10-11T07:45:26.031Z,25.11
2018-10-11T07:46:26.222Z,25.55
2018-10-11T07:47:26.228Z,25.87
2018-10-11T07:48:25.982Z,25.96
2018-10-11T07:49:25.977Z,26.02
2018-10-11T07:50:25.722Z,25.75
2018-10-11T07:51:26.257Z,25.77
2018-10-11T07:52:25.996Z,25.63
2018-10-11T07:53:26.009Z,25.11
2018-10-11T07:54:26.023Z,24.63
2018-10-11T07:55:26.294Z,24.11
2018-10-11T07:56:26.010Z,23.61
2018-10-11T07:57:25.769Z,23.09
2018-10-11T07:58:26.021Z,22.47
2018-10-11T07:59:26.060Z,21.89
2018-10-11T08:00:26.048Z,21.27
2018-10-11T08:01:26.656Z,20.77
2018-10-11T08:02:25.788Z,20.37
2018-10-11T08:03:26.660Z,20.02
2018-10-11T08:04:26.304Z,19.7
2018-10-11T08:05:26.377Z,19.4
2018-10-11T08:06:26.055Z,19.12
2018-10-11T08:07:26.461Z,18.93
2018-10-11T08:08:26.142Z,18.66
2018-10-11T08:09:26.069Z,18.5
2018-10-11T08:10:26.679Z,18.31
2018-10-11T08:11:26.338Z,18.11
2018-10-11T08:12:26.070Z,17.95
2018-10-11T08:13:26.166Z,17.72
2018-10-11T08:14:26.074Z,17.63
2018-10-11T08:15:25.893Z,17.44
2018-10-11T08:16:26.796Z,17.38
2018-10-11T08:17:27.048Z,17.36
2018-10-11T08:18:26.083Z,17.36
2018-10-11T08:19:27.516Z,17.23
2018-10-11T08:20:26.269Z,17.16
2018-10-11T08:21:26.133Z,17.09
2018-10-11T08:22:26.361Z,17.2
2018-10-11T08:23:26.345Z,17.16
2018-10-11T08:24:26.705Z,17.19
2018-10-11T08:25:27.937Z,17.19
2018-10-11T08:26:27.988Z,17.16
2018-10-11T08:27:26.357Z,17.2
2018-10-11T08:28:26.350Z,17.22
2018-10-11T08:29:26.361Z,17.24
2018-10-11T08:30:26.187Z,17.34
2018-10-11T08:31:25.850Z,17.34
2018-10-11T08:32:26.912Z,17.27
2018-10-11T08:33:26.373Z,17.19
2018-10-11T08:34:26.363Z,17.11
2018-10-11T08:35:26.349Z,17.04
2018-10-11T08:36:26.356Z,17.04
2018-10-11T08:37:26.148Z,16.93
2018-10-11T08:38:26.470Z,16.91
2018-10-11T08:39:26.118Z,17.01
2018-10-11T08:40:26.105Z,17.08
2018-10-11T08:41:26.109Z,17.15
2018-10-11T08:42:26.119Z,17.19
2018-10-11T08:43:26.629Z,17.3
2018-10-11T08:44:26.136Z,17.41
2018-10-11T08:45:26.403Z,17.56
2018-10-11T08:46:26.104Z,17.59
2018-10-11T08:47:26.105Z,17.64
2018-10-11T08:48:26.371Z,17.67
2018-10-11T08:49:26.127Z,17.71
2018-10-11T08:50:26.455Z,17.79
2018-10-11T08:51:26.367Z,17.95
2018-10-11T08:52:26.127Z,17.97
2018-10-11T08:53:26.437Z,18.05
2018-10-11T08:54:26.369Z,18.07
2018-10-11T08:55:26.512Z,18.13
2018-10-11T08:56:26.112Z,18.15
2018-10-11T08:57:27.188Z,18.13
2018-10-11T08:58:25.846Z,18.2
2018-10-11T08:59:26.482Z,18.23
2018-10-11T09:00:25.901Z,18.22
2018-10-11T09:01:26.379Z,18.31
2018-10-11T09:02:25.868Z,18.34
2018-10-11T09:03:26.300Z,18.43
2018-10-11T09:04:26.117Z,18.38
2018-10-11T09:05:26.391Z,18.47
2018-10-11T09:06:25.868Z,18.53
2018-10-11T09:07:26.376Z,18.56
2018-10-11T09:08:25.866Z,18.62
2018-10-11T09:09:26.503Z,18.63
2018-10-11T09:10:40.992Z,18.58
2018-10-11T09:11:26.271Z,18.58
2018-10-11T09:12:26.377Z,18.62
2018-10-11T09:13:26.121Z,18.62
2018-10-11T09:14:26.376Z,18.7
2018-10-11T09:15:26.140Z,18.71
2018-10-11T09:16:26.123Z,18.75
2018-10-11T09:17:26.246Z,18.78
2018-10-11T09:18:26.145Z,18.86
2018-10-11T09:19:26.378Z,18.83
2018-10-11T09:20:25.974Z,18.95
2018-10-11T09:21:26.125Z,18.9
2018-10-11T09:22:26.399Z,18.95
2018-10-11T09:23:26.283Z,18.96
2018-10-11T09:24:26.389Z,18.99
2018-10-11T09:25:26.448Z,19.12
2018-10-11T09:26:26.390Z,19.11
2018-10-11T09:27:25.885Z,19.15
2018-10-11T09:28:26.434Z,19.19
2018-10-11T09:29:26.142Z,19.22
2018-10-11T09:30:26.722Z,19.21
2018-10-11T09:31:26.159Z,19.3
2018-10-11T09:32:25.883Z,19.31
2018-10-11T09:33:25.880Z,19.34
2018-10-11T09:34:26.399Z,19.37
2018-10-11T09:35:26.216Z,19.41
2018-10-11T09:36:26.712Z,19.44
2018-10-11T09:37:26.155Z,19.49
2018-10-11T09:38:26.143Z,19.49
2018-10-11T09:39:26.134Z,19.64
2018-10-11T09:40:26.441Z,19.69
2018-10-11T09:41:26.420Z,19.71
2018-10-11T09:42:26.150Z,19.71
2018-10-11T09:43:26.424Z,19.79
2018-10-11T09:44:26.408Z,19.73
2018-10-11T09:45:26.492Z,19.85
2018-10-11T09:46:25.903Z,19.81
2018-10-11T09:47:26.155Z,19.81
2018-10-11T09:48:26.154Z,19.84
2018-10-11T09:49:26.157Z,19.85
2018-10-11T09:50:26.169Z,19.94
2018-10-11T09:51:26.408Z,19.95
2018-10-11T09:52:26.165Z,20.02
2018-10-11T09:53:26.437Z,20.06
2018-10-11T09:54:26.387Z,20.03
2018-10-11T09:55:26.177Z,20.04
2018-10-11T09:56:26.187Z,20.04
2018-10-11T09:57:26.447Z,20.14
2018-10-11T09:58:26.167Z,20.19
2018-10-11T09:59:25.926Z,20.14
2018-10-11T10:00:26.448Z,20.22
2018-10-11T10:01:26.179Z,20.32
2018-10-11T10:02:26.172Z,20.29
2018-10-11T10:03:26.437Z,20.29
2018-10-11T10:04:26.452Z,20.4
2018-10-11T10:05:26.494Z,20.4
2018-10-11T10:06:26.439Z,20.32
2018-10-11T10:07:26.194Z,20.39
2018-10-11T10:08:25.945Z,20.34
2018-10-11T10:09:26.195Z,20.37
2018-10-11T10:10:25.992Z,20.32
2018-10-11T10:11:27.416Z,20.36
2018-10-11T10:12:26.188Z,20.32
2018-10-11T10:13:26.194Z,20.39
2018-10-11T10:14:26.461Z,20.44
2018-10-11T10:15:26.549Z,20.47
2018-10-11T10:16:26.463Z,20.55
2018-10-11T10:17:26.201Z,20.66
2018-10-11T10:18:26.465Z,20.74
2018-10-11T10:19:26.202Z,20.74
2018-10-11T10:20:26.508Z,20.78
2018-10-11T10:21:26.560Z,20.81
2018-10-11T10:22:26.464Z,20.92
2018-10-11T10:23:26.477Z,20.93
2018-10-11T10:24:26.999Z,20.95
2018-10-11T10:25:26.536Z,21.03
2018-10-11T10:26:26.479Z,21.09
2018-10-11T10:27:26.773Z,21.14
2018-10-11T10:28:26.225Z,21.25
2018-10-11T10:29:26.489Z,21.22
2018-10-11T10:30:26.263Z,21.22
2018-10-11T10:31:26.485Z,21.15
2018-10-11T10:32:26.484Z,21.2
2018-10-11T10:33:25.979Z,21.17
2018-10-11T10:34:26.477Z,21.2
2018-10-11T10:35:26.487Z,21.14
2018-10-11T10:36:25.985Z,20.99
2018-10-11T10:37:26.538Z,20.88
2018-10-11T10:38:26.524Z,20.8
2018-10-11T10:39:26.239Z,20.75
2018-10-11T10:40:26.503Z,20.67
2018-10-11T10:41:26.497Z,20.84
2018-10-11T10:42:26.505Z,20.82
2018-10-11T10:43:26.536Z,20.88
2018-10-11T10:44:26.012Z,20.84
2018-10-11T10:45:26.258Z,20.85
2018-10-11T10:46:26.277Z,20.88
2018-10-11T10:47:27.067Z,20.9
2018-10-11T10:48:26.528Z,20.85
2018-10-11T10:49:26.562Z,20.9
2018-10-11T10:50:26.529Z,21.03
2018-10-11T10:51:26.533Z,21.2
2018-10-11T10:52:26.011Z,21.24
2018-10-11T10:53:26.548Z,21.27
2018-10-11T10:54:26.115Z,21.35
2018-10-11T10:55:26.542Z,21.37
2018-10-11T10:56:26.266Z,21.32
2018-10-11T10:57:26.281Z,21.42
2018-10-11T10:58:26.564Z,21.37
2018-10-11T10:59:26.288Z,21.29
2018-10-11T11:00:26.036Z,21.24
2018-10-11T11:01:26.547Z,21.24
2018-10-11T11:02:26.285Z,21.24
2018-10-11T11:03:26.622Z,21.22
2018-10-11T11:04:26.545Z,21.29
2018-10-11T11:05:26.671Z,21.33
2018-10-11T11:06:26.297Z,21.39
2018-10-11T11:07:26.911Z,21.43
2018-10-11T11:08:26.314Z,21.42
2018-10-11T11:09:26.571Z,21.27
2018-10-11T11:10:26.562Z,21.21
2018-10-11T11:11:26.561Z,21.18
2018-10-11T11:12:26.565Z,21.24
2018-10-11T11:13:26.896Z,21.24
2018-10-11T11:14:26.322Z,21.32
2018-10-11T11:15:26.609Z,21.36
2018-10-11T11:16:26.320Z,21.29
2018-10-11T11:17:26.571Z,21.35
2018-10-11T11:18:26.061Z,21.39
2018-10-11T11:19:26.585Z,21.37
2018-10-11T11:20:26.642Z,21.45
2018-10-11T11:21:26.581Z,21.51
2018-10-11T11:22:26.588Z,21.51
2018-10-11T11:23:26.605Z,21.6
2018-10-11T11:24:26.333Z,21.61
2018-10-11T11:25:26.766Z,21.58
2018-10-11T11:26:26.595Z,21.73
2018-10-11T11:27:26.341Z,21.77
2018-10-11T11:28:26.083Z,21.83
2018-10-11T11:29:26.628Z,21.89
2018-10-11T11:30:26.363Z,21.83
2018-10-11T11:31:26.353Z,21.89
2018-10-11T11:32:26.092Z,21.82
2018-10-11T11:33:26.621Z,21.82
2018-10-11T11:34:26.610Z,21.8
2018-10-11T11:35:26.689Z,21.82
2018-10-11T11:36:26.634Z,21.93
2018-10-11T11:37:26.385Z,21.93
2018-10-11T11:38:26.376Z,21.93
2018-10-11T11:39:26.639Z,22
2018-10-11T11:40:26.385Z,21.98
2018-10-11T11:41:26.379Z,21.99
2018-10-11T11:42:26.375Z,21.91
2018-10-11T11:43:26.653Z,21.92
2018-10-11T11:44:26.653Z,22
2018-10-11T11:45:26.662Z,21.89
2018-10-11T11:46:26.645Z,21.96
2018-10-11T11:47:26.646Z,21.91
2018-10-11T11:48:26.656Z,22.02
2018-10-11T11:49:26.402Z,22.02
2018-10-11T11:50:27.021Z,22.1
2018-10-11T11:51:26.646Z,22.17
2018-10-11T11:52:26.659Z,22.22
2018-10-11T11:53:26.656Z,22.29
2018-10-11T11:54:26.661Z,22.43
2018-10-11T11:55:26.462Z,22.44
2018-10-11T11:56:26.675Z,22.48
2018-10-11T11:57:26.430Z,22.44
2018-10-11T11:58:26.698Z,22.57
2018-10-11T11:59:26.418Z,22.55
2018-10-11T12:00:26.213Z,22.62
2018-10-11T12:01:26.429Z,22.68
2018-10-11T12:02:26.687Z,22.68
2018-10-11T12:03:26.695Z,22.72
2018-10-11T12:04:26.440Z,22.76
2018-10-11T12:05:26.468Z,22.88
2018-10-11T12:06:26.440Z,22.93
2018-10-11T12:07:26.711Z,22.96
2018-10-11T12:08:26.457Z,22.9
2018-10-11T12:09:26.456Z,22.9
2018-10-11T12:10:26.910Z,22.91
2018-10-11T12:11:26.462Z,22.84
2018-10-11T12:12:26.456Z,22.7
2018-10-11T12:13:26.459Z,22.73
2018-10-11T12:14:26.481Z,22.66
2018-10-11T12:15:26.491Z,22.62
2018-10-11T12:16:26.792Z,22.55
2018-10-11T12:17:26.463Z,22.59
2018-10-11T12:18:26.739Z,22.62
2018-10-11T12:19:26.467Z,22.6
2018-10-11T12:20:26.789Z,22.62
2018-10-11T12:21:26.738Z,22.7
2018-10-11T12:22:26.490Z,22.72
2018-10-11T12:23:26.544Z,22.7
2018-10-11T12:24:26.742Z,22.75
2018-10-11T12:25:26.853Z,22.76
2018-10-11T12:26:26.617Z,22.78
2018-10-11T12:27:26.501Z,22.76
2018-10-11T12:28:27.131Z,22.78
2018-10-11T12:29:26.512Z,22.84
2018-10-11T12:30:26.576Z,22.84
2018-10-11T12:31:26.769Z,22.88
2018-10-11T12:32:26.256Z,22.85
2018-10-11T12:33:26.530Z,22.87
2018-10-11T12:34:26.779Z,22.94
2018-10-11T12:35:26.863Z,22.94
2018-10-11T12:36:27.013Z,22.98
2018-10-11T12:37:26.800Z,23.05
2018-10-11T12:38:26.544Z,22.96
2018-10-11T12:39:26.553Z,22.98
2018-10-11T12:40:28.096Z,23.06
2018-10-11T12:41:26.571Z,23.13
2018-10-11T12:42:26.717Z,23.15
2018-10-11T12:43:26.549Z,23.12
2018-10-11T12:44:26.560Z,23.15
2018-10-11T12:45:26.755Z,23.13
2018-10-11T12:46:26.808Z,23.12
2018-10-11T12:47:26.556Z,23.1
2018-10-11T12:48:26.565Z,23.13
2018-10-11T12:49:27.501Z,23.1
2018-10-11T12:50:26.882Z,23.06
2018-10-11T12:51:26.581Z,23.05
2018-10-11T12:52:26.832Z,23.1
2018-10-11T12:53:26.835Z,22.99
2018-10-11T12:54:26.834Z,22.98
2018-10-11T12:55:26.430Z,22.98